Time;durP1;ratioP1;P1;durP2;ratioP2;P2;SDS_P1;SDS_P2;PMS_P1;PMS_P2;Temp;Humidity;BMP_temperature;BMP_pressure;BME280_temperature;BME280_humidity;BME280_pressure;Samples;Min_cycle;Max_cycle;Signal;HPM_P1;HPM_P2
2024/03/06 00:01:06;;;;;;;45.50;31.70;;;;;;;6.23;100.00;100547.14;182707;1239;45964;-83
2024/03/06 00:05:25;;;;;;;48.90;32.40;;;;;;;6.26;100.00;100548.92;183419;1239;57045;-83
2024/03/06 00:09:27;;;;;;;51.20;31.70;;;;;;;6.28;100.00;100548.96;182839;1235;46017;-84
2024/03/06 00:13:29;;;;;;;53.50;32.90;;;;;;;6.34;100.00;100550.39;182913;1237;45977;-84
2024/03/06 00:17:31;;;;;;;56.80;34.20;;;;;;;6.37;100.00;100551.80;183395;1235;45964;-83
2024/03/06 00:21:33;;;;;;;47.30;34.80;;;;;;;6.38;100.00;100549.95;183582;1235;45977;-84
2024/03/06 00:25:36;;;;;;;54.50;32.50;;;;;;;6.40;100.00;100552.47;182784;1235;58014;-85
2024/03/06 00:29:38;;;;;;;50.80;35.70;;;;;;;6.40;100.00;100552.67;182273;1235;46079;-84
2024/03/06 00:33:40;;;;;;;51.90;31.80;;;;;;;6.43;100.00;100557.44;182583;1235;46067;-83
2024/03/06 00:37:42;;;;;;;45.50;32.40;;;;;;;6.46;100.00;100557.08;182213;1235;46025;-84
2024/03/06 00:41:44;;;;;;;54.20;32.80;;;;;;;6.47;100.00;100558.05;182548;1235;46107;-84
2024/03/06 00:45:46;;;;;;;53.30;35.70;;;;;;;6.49;100.00;100561.64;182759;1235;59460;-84
2024/03/06 00:49:48;;;;;;;49.40;33.40;;;;;;;6.51;100.00;100564.56;182360;1235;46116;-83
2024/03/06 00:53:50;;;;;;;51.70;33.80;;;;;;;6.51;100.00;100569.31;182227;1235;46114;-84
2024/03/06 00:57:52;;;;;;;48.90;33.90;;;;;;;6.54;100.00;100570.52;182079;1239;46309;-85
2024/03/06 01:01:57;;;;;;;47.80;33.20;;;;;;;6.57;100.00;100575.80;182476;1235;46190;-84
2024/03/06 01:05:59;;;;;;;51.70;31.10;;;;;;;6.57;100.00;100574.37;182432;1235;60387;-84
2024/03/06 01:10:02;;;;;;;50.10;34.50;;;;;;;6.55;100.00;100573.98;182065;1236;46064;-85
2024/03/06 01:14:04;;;;;;;54.40;30.70;;;;;;;6.48;100.00;100570.15;182523;1236;45996;-84
2024/03/06 01:18:06;;;;;;;69.60;43.20;;;;;;;6.42;100.00;100567.02;183023;1235;46066;-84
2024/03/06 01:22:09;;;;;;;60.50;38.90;;;;;;;6.33;100.00;100569.44;182747;1235;45974;-84
2024/03/06 01:26:11;;;;;;;61.00;40.20;;;;;;;6.24;100.00;100567.17;183148;1235;59475;-84
2024/03/06 01:30:13;;;;;;;62.10;39.00;;;;;;;6.14;100.00;100569.52;182540;1236;46065;-83
2024/03/06 01:34:15;;;;;;;56.80;32.40;;;;;;;6.07;100.00;100573.81;182577;1235;45958;-84
2024/03/06 01:38:17;;;;;;;46.50;31.20;;;;;;;5.99;100.00;100577.38;182499;1235;46073;-85
2024/03/06 01:42:19;;;;;;;50.90;33.60;;;;;;;5.91;100.00;100579.62;182474;1235;46069;-85
2024/03/06 01:46:21;;;;;;;56.00;35.40;;;;;;;5.85;100.00;100583.32;182971;1235;58292;-85
2024/03/06 01:50:23;;;;;;;62.40;37.80;;;;;;;5.78;100.00;100587.23;182459;1235;44648;-84
2024/03/06 01:54:26;;;;;;;58.20;35.40;;;;;;;5.66;100.00;100591.59;182702;1235;46083;-84
2024/03/06 01:58:28;;;;;;;58.90;37.90;;;;;;;5.47;100.00;100592.45;182745;1236;46078;-84
2024/03/06 02:02:30;;;;;;;59.70;39.30;;;;;;;5.27;100.00;100592.11;182346;1235;46028;-83
2024/03/06 02:06:33;;;;;;;60.00;39.10;;;;;;;5.11;100.00;100598.08;183139;1235;58031;-84
2024/03/06 02:10:35;;;;;;;56.80;35.00;;;;;;;4.97;100.00;100593.02;182652;1235;46020;-84
2024/03/06 02:14:38;;;;;;;59.10;38.20;;;;;;;4.86;100.00;100593.77;182491;1235;46268;-84
2024/03/06 02:18:54;;;;;;;50.90;37.10;;;;;;;4.82;100.00;100596.28;182771;1235;46136;-84
2024/03/06 02:22:56;;;;;;;60.80;40.00;;;;;;;4.80;100.00;100597.92;182538;1239;45958;-84
2024/03/06 02:26:58;;;;;;;56.30;37.40;;;;;;;4.78;100.00;100599.98;182737;1239;58070;-84
2024/03/06 02:31:01;;;;;;;55.40;36.70;;;;;;;4.79;100.00;100601.87;182909;1235;44694;-84
2024/03/06 02:35:08;;;;;;;57.30;38.20;;;;;;;4.80;100.00;100604.30;182500;1236;46066;-83
2024/03/06 02:39:10;;;;;;;;;;;;;;;4.80;100.00;100607.05;182411;1235;46142;-84
2024/03/06 02:43:12;;;;;;;56.60;39.40;;;;;;;4.82;100.00;100604.19;182332;1235;45675;-85
2024/03/06 02:47:14;;;;;;;52.20;34.60;;;;;;;4.85;100.00;100604.89;182709;1235;58206;-84
2024/03/06 02:51:19;;;;;;;62.20;39.10;;;;;;;4.88;100.00;100609.66;182131;1235;46092;-84
2024/03/06 02:55:23;;;;;;;60.80;39.60;;;;;;;4.91;100.00;100611.96;182889;1235;43997;-83
2024/03/06 02:59:26;;;;;;;53.30;37.00;;;;;;;4.91;100.00;100612.47;182008;1239;46214;-84
2024/03/06 03:03:29;;;;;;;52.40;32.80;;;;;;;4.91;100.00;100617.41;182446;1239;46075;-84
2024/03/06 03:07:31;;;;;;;50.80;31.10;;;;;;;4.93;100.00;100619.23;182287;1234;56834;-84
2024/03/06 03:11:35;;;;;;;59.80;32.50;;;;;;;4.92;100.00;100624.38;182329;1235;45561;-82
2024/03/06 03:15:38;;;;;;;52.20;31.40;;;;;;;4.83;100.00;100625.05;182620;1236;46266;-85
2024/03/06 03:19:40;;;;;;;60.00;36.60;;;;;;;4.74;100.00;100633.39;182079;1234;46149;-84
2024/03/06 03:23:42;;;;;;;49.40;34.30;;;;;;;4.68;100.00;100635.81;182940;1235;45999;-84
2024/03/06 03:27:44;;;;;;;51.20;32.80;;;;;;;4.61;100.00;100637.40;182293;1238;59135;-85
2024/03/06 03:31:46;;;;;;;56.90;33.30;;;;;;;4.53;100.00;100644.30;182450;1239;45899;-83
2024/03/06 03:35:48;;;;;;;51.60;34.30;;;;;;;4.46;100.00;100646.41;182510;1235;45954;-83
2024/03/06 03:39:50;;;;;;;51.80;35.10;;;;;;;4.40;100.00;100648.27;183149;1235;45529;-84
2024/03/06 03:43:52;;;;;;;51.60;34.30;;;;;;;4.34;100.00;100639.27;183273;1239;45490;-84
2024/03/06 03:47:54;;;;;;;45.00;30.30;;;;;;;4.30;100.00;100640.20;182232;1234;59839;-84
2024/03/06 03:51:56;;;;;;;52.80;34.40;;;;;;;4.24;100.00;100643.85;183949;1235;46431;-84
2024/03/06 03:55:59;;;;;;;41.10;29.00;;;;;;;4.11;100.00;100651.14;183004;1235;44438;-84
2024/03/06 04:00:01;;;;;;;49.80;29.10;;;;;;;3.89;100.00;100657.59;182785;1236;46097;-87
2024/03/06 04:04:04;;;;;;;53.50;34.60;;;;;;;3.67;100.00;100660.23;182718;1238;46047;-84
2024/03/06 04:08:06;;;;;;;47.40;32.20;;;;;;;3.37;100.00;100669.46;182211;1235;59402;-84
2024/03/06 04:12:08;;;;;;;53.80;34.60;;;;;;;3.12;100.00;100670.40;182183;1235;46008;-84
2024/03/06 04:16:16;;;;;;;46.40;29.40;;;;;;;3.04;100.00;100676.76;182666;1236;44460;-85
2024/03/06 04:20:18;;;;;;;42.30;28.30;;;;;;;2.94;100.00;100674.73;185420;1235;43990;-84
2024/03/06 04:24:20;;;;;;;49.50;30.80;;;;;;;2.74;100.00;100674.52;182507;1239;46199;-86
2024/03/06 04:28:22;;;;;;;51.70;31.20;;;;;;;2.72;100.00;100680.73;182496;1235;57904;-86
2024/03/06 04:32:24;;;;;;;56.60;37.50;;;;;;;2.73;100.00;100686.30;182369;1235;46400;-84
2024/03/06 04:36:26;;;;;;;55.80;34.10;;;;;;;2.67;100.00;100691.27;185764;1235;43681;-86
2024/03/06 04:40:29;;;;;;;56.40;34.90;;;;;;;2.58;100.00;100693.21;184256;1235;44457;-84
2024/03/06 04:44:34;;;;;;;55.20;33.50;;;;;;;2.53;100.00;100693.95;184056;1238;46006;-86
2024/03/06 04:48:36;;;;;;;53.40;31.10;;;;;;;2.46;100.00;100694.77;182720;1239;59093;-84
2024/03/06 04:52:38;;;;;;;41.20;28.90;;;;;;;2.27;100.00;100698.34;183865;1235;46002;-87
2024/03/06 04:56:41;;;;;;;64.90;35.50;;;;;;;2.08;100.00;100701.02;182970;1235;46098;-86
2024/03/06 05:00:43;;;;;;;45.70;28.90;;;;;;;2.02;100.00;100702.81;182393;1234;46015;-85
2024/03/06 05:04:46;;;;;;;49.60;29.30;;;;;;;1.97;100.00;100703.70;183271;1235;46167;-86
2024/03/06 05:09:07;;;;;;;44.20;30.60;;;;;;;1.94;100.00;100714.67;184181;1237;59634;-86
2024/03/06 05:13:27;;;;;;;53.50;32.30;;;;;;;1.92;100.00;100718.23;184239;1237;45975;-85
2024/03/06 05:17:47;;;;;;;52.80;29.20;;;;;;;1.91;100.00;100713.57;183764;1238;46115;-83
2024/03/06 05:22:07;;;;;;;55.20;31.60;;;;;;;1.76;100.00;100720.45;184082;1238;44445;-84
2024/03/06 05:26:27;;;;;;;49.80;30.40;;;;;;;1.73;100.00;100721.26;184333;1235;46018;-85
2024/03/06 05:30:47;;;;;;;37.30;27.00;;;;;;;1.75;100.00;100722.58;182817;1236;59426;-85
2024/03/06 05:35:11;;;;;;;44.60;27.90;;;;;;;1.69;100.00;100728.20;183096;1236;46787;-85
2024/03/06 05:39:31;;;;;;;60.40;30.60;;;;;;;1.69;100.00;100731.70;182527;1239;46167;-83
2024/03/06 05:43:51;;;;;;;72.30;32.40;;;;;;;1.75;100.00;100735.36;182982;1235;46086;-86
2024/03/06 05:48:11;;;;;;;70.30;31.80;;;;;;;1.77;100.00;100740.86;183409;1236;46096;-86
2024/03/06 05:52:31;;;;;;;88.90;30.60;;;;;;;1.73;100.00;100745.04;184818;1235;57597;-83
2024/03/06 05:56:51;;;;;;;75.20;33.40;;;;;;;1.62;100.00;100741.77;183919;1238;46141;-81
2024/03/06 06:01:13;;;;;;;60.70;32.10;;;;;;;1.61;100.00;100751.95;183296;1235;46017;-86
2024/03/06 06:05:16;;;;;;;86.70;35.00;;;;;;;1.64;100.00;100761.45;182568;1237;45989;-85
2024/03/06 06:09:25;;;;;;;59.30;29.60;;;;;;;1.72;100.00;100760.26;182946;1235;45951;-83
2024/03/06 06:13:27;;;;;;;75.30;34.20;;;;;;;1.81;100.00;100761.86;183550;1239;59227;-85
2024/03/06 06:17:29;;;;;;;85.40;30.50;;;;;;;1.88;100.00;100761.09;183316;1235;45965;-85
2024/03/06 06:21:31;;;;;;;54.60;31.60;;;;;;;1.97;100.00;100767.39;183564;1239;46044;-84
2024/03/06 06:25:33;;;;;;;59.60;33.10;;;;;;;2.09;100.00;100776.90;182473;1235;44313;-85
2024/03/06 06:29:35;;;;;;;57.00;31.70;;;;;;;2.24;100.00;100784.94;183578;1239;45999;-84
2024/03/06 06:33:37;;;;;;;56.10;33.80;;;;;;;2.33;100.00;100790.16;183650;1236;59283;-84
2024/03/06 06:37:39;;;;;;;64.20;36.70;;;;;;;2.45;100.00;100788.45;183086;1235;45896;-85
2024/03/06 06:41:42;;;;;;;44.80;32.70;;;;;;;2.61;100.00;100782.23;183425;1235;45954;-85
2024/03/06 06:45:44;;;;;;;56.90;33.80;;;;;;;2.64;100.00;100785.63;183591;1234;44162;-85
2024/03/06 06:49:46;;;;;;;47.00;30.20;;;;;;;2.60;100.00;100785.94;183336;1237;46107;-84
2024/03/06 06:53:48;;;;;;;41.90;28.60;;;;;;;2.57;100.00;100790.96;183306;1239;58111;-86
2024/03/06 06:57:51;;;;;;;46.00;31.70;;;;;;;2.67;100.00;100798.10;184124;1235;46120;-85
2024/03/06 07:01:54;;;;;;;51.50;34.40;;;;;;;2.75;100.00;100796.72;183246;1239;45871;-85
2024/03/06 07:05:57;;;;;;;42.10;28.70;;;;;;;2.68;100.00;100796.30;183030;1236;46151;-84
2024/03/06 07:09:59;;;;;;;57.90;30.40;;;;;;;2.67;100.00;100796.35;183947;1239;45800;-84
2024/03/06 07:14:00;;;;;;;51.60;31.20;;;;;;;2.80;100.00;100798.96;182741;1238;58157;-85
2024/03/06 07:18:03;;;;;;;46.80;28.90;;;;;;;2.99;100.00;100805.36;184367;1236;45882;-86
2024/03/06 07:22:05;;;;;;;49.30;31.40;;;;;;;3.04;100.00;100809.02;183568;1235;45880;-86
2024/03/06 07:26:07;;;;;;;58.80;32.70;;;;;;;2.99;100.00;100809.91;184063;1235;44039;-86
2024/03/06 07:30:10;;;;;;;55.30;30.40;;;;;;;3.10;100.00;100819.80;182493;1235;45967;-86
2024/03/06 07:34:16;;;;;;;;;;;;;;;3.26;100.00;100820.73;182796;1239;60340;-84
2024/03/06 07:38:18;;;;;;;43.30;26.30;;;;;;;3.36;100.00;100823.10;182662;1239;45833;-84
2024/03/06 07:42:21;;;;;;;43.80;29.70;;;;;;;3.37;100.00;100827.45;183024;1235;46142;-84
2024/03/06 07:46:22;;;;;;;82.80;30.70;;;;;;;3.42;100.00;100831.79;182339;1239;46320;-86
2024/03/06 07:50:24;;;;;;;55.30;30.30;;;;;;;3.38;100.00;100837.23;182408;1239;45980;-86
2024/03/06 07:54:29;;;;;;;59.10;33.20;;;;;;;3.27;100.00;100834.87;183322;1235;58445;-84
2024/03/06 07:58:31;;;;;;;51.50;32.70;;;;;;;3.29;100.00;100839.71;183275;1237;45896;-85
2024/03/06 08:02:32;;;;;;;55.70;32.00;;;;;;;3.37;100.00;100846.21;183440;1239;46411;-86
2024/03/06 08:06:37;;;;;;;50.20;33.10;;;;;;;3.37;100.00;100848.13;182985;1239;45950;-85
2024/03/06 08:10:39;;;;;;;60.80;35.30;;;;;;;3.31;100.00;100853.31;184241;1239;44126;-86
2024/03/06 08:14:41;;;;;;;68.10;42.20;;;;;;;3.48;100.00;100854.88;184595;1239;59464;-86
2024/03/06 08:18:43;;;;;;;60.20;41.00;;;;;;;3.75;100.00;100857.58;182946;1237;46142;-85
2024/03/06 08:22:45;;;;;;;64.10;37.70;;;;;;;3.99;100.00;100858.09;184779;1236;46193;-86
2024/03/06 08:26:48;;;;;;;63.50;42.30;;;;;;;4.12;100.00;100858.38;183377;1239;45985;-82
2024/03/06 08:30:51;;;;;;;74.00;43.20;;;;;;;4.22;100.00;100860.41;183778;1236;45922;-86
2024/03/06 08:34:53;;;;;;;76.90;45.50;;;;;;;4.36;100.00;100866.79;183686;1235;59279;-86
2024/03/06 08:38:55;;;;;;;71.60;46.90;;;;;;;4.53;100.00;100868.10;183085;1235;46113;-86
2024/03/06 08:42:57;;;;;;;93.90;54.40;;;;;;;4.68;100.00;100868.43;184965;1235;46063;-85
2024/03/06 08:46:59;;;;;;;80.00;51.90;;;;;;;4.86;100.00;100870.58;182146;1236;46571;-85
2024/03/06 08:51:00;;;;;;;90.00;54.20;;;;;;;4.96;100.00;100871.48;183726;1239;45983;-86
2024/03/06 08:55:06;;;;;;;80.60;54.80;;;;;;;5.12;100.00;100874.08;183522;1240;59488;-85
2024/03/06 08:59:08;;;;;;;88.00;54.70;;;;;;;5.27;100.00;100866.66;182666;1237;45948;-85
2024/03/06 09:03:10;;;;;;;83.70;49.90;;;;;;;5.29;100.00;100875.51;182355;1235;46260;-85
2024/03/06 09:07:13;;;;;;;87.00;55.40;;;;;;;5.35;100.00;100883.13;183490;1236;46091;-85
2024/03/06 09:11:15;;;;;;;96.60;52.80;;;;;;;5.37;100.00;100887.80;185475;1238;46088;-86
2024/03/06 09:15:17;;;;;;;80.40;53.70;;;;;;;5.32;100.00;100893.65;183029;1235;57165;-84
2024/03/06 09:19:19;;;;;;;91.30;56.20;;;;;;;5.20;100.00;100897.60;183449;1238;46092;-83
2024/03/06 09:23:21;;;;;;;84.30;51.70;;;;;;;5.23;100.00;100894.44;182592;1239;46073;-83
2024/03/06 09:27:23;;;;;;;77.30;48.50;;;;;;;5.24;100.00;100894.03;183022;1235;45948;-84
2024/03/06 09:31:25;;;;;;;96.90;57.60;;;;;;;5.19;100.00;100899.91;183300;1238;46106;-85
2024/03/06 09:35:27;;;;;;;74.70;48.90;;;;;;;5.25;100.00;100908.60;183087;1235;57196;-85
2024/03/06 09:39:29;;;;;;;87.60;54.30;;;;;;;5.28;100.00;100911.09;182335;1240;46096;-83
2024/03/06 09:43:30;;;;;;;98.00;57.30;;;;;;;5.34;100.00;100915.73;182937;1239;46095;-85
2024/03/06 09:47:36;;;;;;;86.60;54.20;;;;;;;5.31;100.00;100917.45;182898;1236;45867;-82
2024/03/06 09:51:41;;;;;;;93.90;59.50;;;;;;;5.31;100.00;100914.11;182952;1235;46102;-85
2024/03/06 09:55:46;;;;;;;93.50;58.00;;;;;;;5.32;100.00;100919.84;183109;1240;59179;-85
2024/03/06 09:59:47;;;;;;;87.00;58.00;;;;;;;5.34;100.00;100917.46;182349;1235;44248;-86
2024/03/06 10:03:50;;;;;;;90.80;60.30;;;;;;;5.25;100.00;100916.71;183628;1238;44087;-84
2024/03/06 10:07:52;;;;;;;89.20;56.60;;;;;;;5.19;100.00;100915.57;182566;1237;45990;-86
2024/03/06 10:11:56;;;;;;;96.70;60.20;;;;;;;5.29;100.00;100915.95;182380;1240;45970;-85
2024/03/06 10:16:04;;;;;;;103.60;67.40;;;;;;;5.22;100.00;100913.14;183187;1240;59277;-82
2024/03/06 10:20:20;;;;;;;101.40;63.20;;;;;;;5.19;100.00;100910.27;183819;1235;46081;-83
2024/03/06 10:24:28;;;;;;;96.10;62.90;;;;;;;5.32;100.00;100908.96;182905;1240;46394;-85
2024/03/06 10:28:32;;;;;;;111.50;60.70;;;;;;;5.50;100.00;100905.61;183362;1236;45986;-85
2024/03/06 10:32:34;;;;;;;91.10;58.80;;;;;;;5.66;100.00;100905.34;184206;1239;46091;-83
2024/03/06 10:36:37;;;;;;;81.40;51.40;;;;;;;5.81;100.00;100904.21;183404;1235;58405;-84
2024/03/06 10:40:42;;;;;;;85.30;58.10;;;;;;;5.90;100.00;100899.88;183167;1235;45970;-84
2024/03/06 10:44:52;;;;;;;93.60;56.40;;;;;;;6.12;100.00;100899.29;183775;1235;44436;-84
2024/03/06 10:48:58;;;;;;;92.80;57.70;;;;;;;6.17;100.00;100896.73;182472;1240;46021;-84
2024/03/06 10:53:01;;;;;;;95.80;57.80;;;;;;;6.34;100.00;100899.19;183511;1235;46103;-85
2024/03/06 10:57:03;;;;;;;90.40;56.10;;;;;;;6.38;100.00;100907.06;182483;1234;60253;-83
2024/03/06 11:01:08;;;;;;;93.10;60.60;;;;;;;6.51;100.00;100905.48;182851;1235;46104;-86
2024/03/06 11:05:10;;;;;;;98.30;56.10;;;;;;;6.54;100.00;100904.25;182306;1240;46059;-84
2024/03/06 11:09:14;;;;;;;87.50;55.60;;;;;;;6.48;100.00;100903.02;182407;1235;46053;-85
2024/03/06 11:13:19;;;;;;;80.10;49.40;;;;;;;6.58;100.00;100902.25;182645;1239;46053;-85
2024/03/06 11:17:26;;;;;;;84.70;51.80;;;;;;;6.66;100.00;100905.69;182580;1238;58270;-86
2024/03/06 11:21:28;;;;;;;61.70;43.30;;;;;;;6.79;100.00;100904.80;182782;1235;45976;-85
2024/03/06 11:25:54;;;;;;;72.00;42.70;;;;;;;7.02;100.00;100898.06;182366;1239;46094;-81
2024/03/06 11:30:10;;;;;;;72.90;48.00;;;;;;;7.08;100.00;100898.09;182179;1235;331708;-85
2024/03/06 11:34:16;;;;;;;57.10;40.00;;;;;;;7.24;100.00;100899.80;183790;1235;46020;-85
2024/03/06 11:38:21;;;;;;;59.90;40.00;;;;;;;7.36;99.34;100897.19;182944;1239;59636;-82
2024/03/06 11:42:39;;;;;;;55.50;39.30;;;;;;;7.49;98.51;100892.91;183079;1238;46218;-86
2024/03/06 11:46:42;;;;;;;62.90;37.70;;;;;;;7.53;98.70;100886.64;182369;1235;45957;-83
2024/03/06 11:50:45;;;;;;;60.00;36.90;;;;;;;7.76;97.33;100886.20;182354;1235;46039;-85
2024/03/06 11:54:47;;;;;;;43.70;31.70;;;;;;;7.87;94.59;100878.64;182645;1239;46169;-79
2024/03/06 11:58:48;;;;;;;47.10;29.90;;;;;;;7.94;89.46;100874.84;183270;1235;58104;-86
2024/03/06 12:02:51;;;;;;;35.70;24.10;;;;;;;8.07;86.37;100874.58;183222;1238;45965;-82
2024/03/06 12:07:04;;;;;;;39.40;26.00;;;;;;;8.14;84.16;100866.91;182218;1237;46214;-84
2024/03/06 12:11:07;;;;;;;39.50;27.50;;;;;;;8.15;85.29;100862.42;182937;1235;46042;-85
2024/03/06 12:15:11;;;;;;;30.20;20.60;;;;;;;8.19;83.34;100867.33;183118;1235;45974;-81
2024/03/06 12:19:13;;;;;;;27.20;21.60;;;;;;;8.32;80.99;100868.64;183499;1235;58089;-84
2024/03/06 12:23:23;;;;;;;32.80;22.60;;;;;;;8.39;83.41;100866.74;183831;1235;44282;-85
2024/03/06 12:27:25;;;;;;;25.60;19.00;;;;;;;8.44;77.83;100864.36;183607;1235;46066;-85
2024/03/06 12:31:26;;;;;;;29.30;18.80;;;;;;;8.31;76.89;100858.28;183264;1240;46103;-82
2024/03/06 12:35:28;;;;;;;34.00;23.00;;;;;;;8.45;79.99;100857.02;183930;1235;46110;-86
2024/03/06 12:39:32;;;;;;;32.80;20.00;;;;;;;8.63;78.60;100850.63;184092;1235;59404;-84
2024/03/06 12:43:34;;;;;;;25.50;16.40;;;;;;;8.80;73.90;100845.69;183089;1239;46039;-86
2024/03/06 12:47:37;;;;;;;26.50;19.60;;;;;;;8.87;76.10;100853.33;182487;1239;46085;-86
2024/03/06 12:51:40;;;;;;;31.70;19.80;;;;;;;8.91;74.33;100858.02;183284;1239;46200;-84
2024/03/06 12:55:45;;;;;;;27.00;20.50;;;;;;;9.03;73.99;100856.71;182932;1238;46081;-84
2024/03/06 12:59:47;;;;;;;32.20;23.60;;;;;;;9.11;72.84;100849.14;183489;1240;59157;-86
2024/03/06 13:03:49;;;;;;;25.30;18.50;;;;;;;9.21;75.63;100853.40;183011;1236;46073;-83
2024/03/06 13:07:51;;;;;;;30.00;21.40;;;;;;;9.21;72.86;100852.67;182865;1238;44554;-86
2024/03/06 13:11:54;;;;;;;31.10;22.10;;;;;;;9.10;76.17;100853.98;182947;1235;46054;-86
2024/03/06 13:15:56;;;;;;;33.90;23.60;;;;;;;9.05;78.65;100860.11;182319;1235;45948;-85
2024/03/06 13:19:58;;;;;;;31.80;22.40;;;;;;;8.97;79.97;100860.99;183272;1235;59332;-85
2024/03/06 13:24:00;;;;;;;32.00;25.70;;;;;;;8.77;78.11;100857.20;182768;1238;45954;-84
2024/03/06 13:28:03;;;;;;;34.60;23.90;;;;;;;8.56;78.82;100859.06;185274;1235;45969;-85
2024/03/06 13:32:06;;;;;;;32.50;24.00;;;;;;;8.45;82.16;100860.04;183444;1235;46025;-85
2024/03/06 13:36:08;;;;;;;30.70;22.80;;;;;;;8.38;79.82;100862.09;183749;1236;46031;-84
2024/03/06 13:40:12;;;;;;;32.20;24.30;;;;;;;8.31;78.93;100864.83;182831;1235;59126;-84
2024/03/06 13:44:14;;;;;;;32.90;20.90;;;;;;;8.23;79.91;100861.77;183833;1235;44354;-85
2024/03/06 13:48:17;;;;;;;37.00;23.70;;;;;;;8.20;77.53;100860.21;182834;1235;46755;-84
2024/03/06 13:52:23;;;;;;;38.00;26.50;;;;;;;8.12;79.26;100864.03;183195;1239;46178;-84
2024/03/06 13:56:25;;;;;;;46.60;29.50;;;;;;;8.11;82.98;100860.40;183461;1235;46110;-83
2024/03/06 14:00:27;;;;;;;43.70;30.70;;;;;;;8.04;85.53;100861.55;182981;1235;57923;-83
2024/03/06 14:04:30;;;;;;;39.80;27.70;;;;;;;7.98;85.89;100867.05;182339;1235;46251;-82
2024/03/06 14:08:32;;;;;;;40.50;28.10;;;;;;;7.87;84.84;100865.77;182619;1235;45897;-83
2024/03/06 14:12:35;;;;;;;38.30;26.30;;;;;;;7.80;85.04;100868.84;183706;1235;46081;-82
2024/03/06 14:16:40;;;;;;;51.70;30.50;;;;;;;7.78;88.16;100864.38;183154;1235;46088;-83
2024/03/06 14:20:41;;;;;;;38.70;29.20;;;;;;;7.81;87.98;100872.10;183024;1238;58079;-83
2024/03/06 14:24:43;;;;;;;45.60;31.10;;;;;;;7.81;87.19;100868.23;183070;1235;46460;-83
2024/03/06 14:28:45;;;;;;;40.70;28.00;;;;;;;7.87;88.12;100867.51;184095;1235;43888;-82
2024/03/06 14:32:47;;;;;;;39.30;28.40;;;;;;;7.90;90.54;100864.17;182853;1234;45946;-82
2024/03/06 14:36:52;;;;;;;37.70;26.50;;;;;;;7.91;88.19;100870.30;182392;1235;46011;-82
2024/03/06 14:40:54;;;;;;;38.30;28.20;;;;;;;7.91;87.84;100870.80;182468;1235;58117;-82
2024/03/06 14:44:56;;;;;;;41.90;25.80;;;;;;;7.92;88.76;100872.54;183330;1236;46080;-83
2024/03/06 14:48:58;;;;;;;41.00;29.20;;;;;;;7.96;90.67;100871.04;182944;1235;45996;-83
2024/03/06 14:52:59;;;;;;;42.80;26.00;;;;;;;7.98;89.91;100870.92;182582;1235;45994;-82
2024/03/06 14:57:01;;;;;;;40.80;29.20;;;;;;;7.99;90.00;100872.80;182817;1239;46044;-83
2024/03/06 15:01:03;;;;;;;43.50;30.80;;;;;;;8.01;90.87;100873.70;182594;1235;59873;-83
2024/03/06 15:05:05;;;;;;;42.20;29.20;;;;;;;8.02;91.40;100872.44;183207;1236;46080;-82
2024/03/06 15:09:11;;;;;;;36.60;28.40;;;;;;;7.98;91.69;100877.63;183012;1235;46176;-84
2024/03/06 15:13:15;;;;;;;39.80;24.50;;;;;;;7.90;91.19;100878.45;182780;1237;46110;-84
2024/03/06 15:17:17;;;;;;;32.80;23.20;;;;;;;7.85;91.65;100883.70;183367;1235;46109;-83
2024/03/06 15:21:20;;;;;;;38.30;28.60;;;;;;;7.75;91.50;100883.94;183282;1235;58091;-83
2024/03/06 15:25:22;;;;;;;36.70;24.60;;;;;;;7.67;92.37;100889.02;183373;1235;46111;-83
2024/03/06 15:29:23;;;;;;;38.90;28.40;;;;;;;7.64;94.03;100885.99;182951;1235;45906;-84
2024/03/06 15:33:26;;;;;;;34.50;26.40;;;;;;;7.62;95.40;100886.14;182868;1235;45931;-83
2024/03/06 15:37:27;;;;;;;35.50;28.00;;;;;;;7.57;96.29;100892.93;183793;1235;45989;-83
2024/03/06 15:41:29;;;;;;;39.90;28.40;;;;;;;7.50;97.34;100900.11;182537;1236;58978;-82
2024/03/06 15:45:31;;;;;;;42.40;28.40;;;;;;;7.44;100.00;100899.73;183285;1235;44115;-84
2024/03/06 15:49:33;;;;;;;47.70;32.30;;;;;;;7.37;100.00;100897.13;182451;1239;46267;-84
2024/03/06 15:53:35;;;;;;;52.00;35.20;;;;;;;7.30;100.00;100901.61;183200;1234;46223;-84
2024/03/06 15:57:38;;;;;;;48.10;35.90;;;;;;;7.20;100.00;100898.60;184601;1235;45971;-84
2024/03/06 16:01:40;;;;;;;53.10;36.10;;;;;;;7.14;100.00;100905.70;184466;1239;58204;-85
2024/03/06 16:05:41;;;;;;;50.40;32.50;;;;;;;7.05;100.00;100911.48;183575;1239;45954;-86
2024/03/06 16:09:43;;;;;;;55.50;36.20;;;;;;;6.96;100.00;100912.48;183349;1235;46200;-85
2024/03/06 16:13:46;;;;;;;45.80;33.60;;;;;;;6.95;100.00;100912.56;183283;1235;44124;-85
2024/03/06 16:17:48;;;;;;;51.00;34.40;;;;;;;6.90;100.00;100915.53;182829;1235;46044;-85
2024/03/06 16:21:51;;;;;;;53.50;35.30;;;;;;;6.87;100.00;100921.48;183498;1235;58322;-85
2024/03/06 16:25:53;;;;;;;46.90;32.10;;;;;;;6.83;100.00;100922.59;182226;1235;46019;-87
2024/03/06 16:29:55;;;;;;;47.50;31.80;;;;;;;6.72;100.00;100924.23;182885;1235;46107;-86
2024/03/06 16:33:57;;;;;;;45.10;31.30;;;;;;;6.66;100.00;100929.33;182925;1235;46074;-86
2024/03/06 16:37:59;;;;;;;37.90;25.10;;;;;;;6.59;100.00;100938.17;182830;1235;44512;-86
2024/03/06 16:42:02;;;;;;;39.00;25.50;;;;;;;6.54;100.00;100939.14;182550;1235;58109;-87
2024/03/06 16:46:06;;;;;;;42.70;28.00;;;;;;;6.49;100.00;100942.06;182749;1235;46002;-87
2024/03/06 16:50:08;;;;;;;34.80;27.60;;;;;;;6.41;100.00;100940.91;182653;1235;46550;-87
2024/03/06 16:54:13;;;;;;;41.20;27.00;;;;;;;6.38;100.00;100943.85;182562;1235;46135;-85
2024/03/06 16:58:15;;;;;;;49.30;31.30;;;;;;;6.34;100.00;100946.20;182820;1239;46052;-85
2024/03/06 17:02:17;;;;;;;41.30;29.70;;;;;;;6.29;100.00;100947.87;184009;1235;60470;-86
2024/03/06 17:06:20;;;;;;;37.60;26.10;;;;;;;6.23;100.00;100945.74;183201;1235;45867;-85
2024/03/06 17:10:23;;;;;;;40.80;28.40;;;;;;;6.09;100.00;100948.55;182637;1237;45967;-86
2024/03/06 17:14:26;;;;;;;50.30;31.00;;;;;;;6.06;100.00;100952.25;182944;1235;45910;-86
2024/03/06 17:18:28;;;;;;;50.10;33.30;;;;;;;6.07;100.00;100953.23;183095;1235;44044;-88
2024/03/06 17:22:31;;;;;;;49.50;32.60;;;;;;;6.03;100.00;100953.83;182925;1235;60372;-87
2024/03/06 17:26:37;;;;;;;49.30;32.30;;;;;;;6.04;100.00;100954.63;182810;1236;45874;-87
2024/03/06 17:30:41;;;;;;;46.60;30.60;;;;;;;6.03;100.00;100959.25;182772;1235;46147;-87
2024/03/06 17:34:43;;;;;;;50.30;32.10;;;;;;;6.04;100.00;100964.65;182903;1235;45970;-87
2024/03/06 17:38:46;;;;;;;50.40;34.50;;;;;;;6.03;100.00;100962.08;183609;1235;46000;-87
2024/03/06 17:42:48;;;;;;;46.20;31.20;;;;;;;6.05;100.00;100964.96;182998;1235;58373;-88
2024/03/06 17:46:51;;;;;;;54.20;34.20;;;;;;;6.06;100.00;100961.39;183381;1235;46103;-87
2024/03/06 17:50:53;;;;;;;48.10;34.00;;;;;;;6.06;100.00;100963.88;183469;1235;46129;-88
2024/03/06 17:54:55;;;;;;;50.60;30.90;;;;;;;5.98;100.00;100959.52;182847;1235;46107;-86
2024/03/06 17:58:57;;;;;;;46.60;32.20;;;;;;;5.88;100.00;100960.73;182452;1235;46109;-87
2024/03/06 18:03:00;;;;;;;52.30;32.80;;;;;;;5.72;100.00;100963.27;183015;1238;58848;-86
2024/03/06 18:07:02;;;;;;;47.70;30.00;;;;;;;5.68;100.00;100963.27;182912;1235;45934;-90
2024/03/06 18:11:04;;;;;;;41.00;29.10;;;;;;;5.55;100.00;100964.29;182843;1235;45986;-88
2024/03/06 18:15:07;;;;;;;46.30;32.40;;;;;;;5.52;100.00;100964.07;182761;1235;46016;-88
2024/03/06 18:19:10;;;;;;;46.40;29.20;;;;;;;5.51;100.00;100965.38;183251;1238;45973;-89